Time;durP1;ratioP1;P1;durP2;ratioP2;P2;SDS_P1;SDS_P2;PMS_P1;PMS_P2;Temp;Humidity;BMP_temperature;BMP_pressure;BME280_temperature;BME280_humidity;BME280_pressure;Samples;Min_cycle;Max_cycle;Signal;HPM_P1;HPM_P2
2021/08/03 00:00:51;;;;;;;7.47;5.03;;;14.70;99.90;;;;;;2096005;28;20031;-69
2021/08/03 00:01:53;;;;;;;6.22;5.60;;;14.70;99.90;;;;;;2096164;28;20024;-69
2021/08/03 00:02:58;;;;;;;5.55;4.97;;;14.70;99.90;;;;;;2096439;28;20502;-70
2021/08/03 00:04:14;;;;;;;5.18;4.35;;;14.70;99.90;;;;;;2096988;28;20158;-69
2021/08/03 00:05:23;;;;;;;9.15;5.05;;;14.70;99.90;;;;;;2088183;28;20116;-70
2021/08/03 00:06:26;;;;;;;4.82;3.90;;;14.60;99.90;;;;;;2095792;28;20427;-69
2021/08/03 00:07:28;;;;;;;6.45;4.38;;;14.60;99.90;;;;;;2094708;28;20017;-69
2021/08/03 00:08:34;;;;;;;6.22;5.05;;;14.60;99.90;;;;;;2088812;28;20029;-69
2021/08/03 00:09:36;;;;;;;6.05;4.65;;;14.60;99.90;;;;;;2095886;28;20403;-69
2021/08/03 00:10:37;;;;;;;4.78;4.28;;;14.60;99.90;;;;;;2095943;28;20069;-69
2021/08/03 00:11:43;;;;;;;6.10;5.00;;;14.60;99.90;;;;;;2095985;28;20025;-70
2021/08/03 00:12:49;;;;;;;5.75;4.72;;;14.60;99.90;;;;;;2096369;28;20021;-70
2021/08/03 00:13:51;;;;;;;7.72;4.90;;;14.60;99.90;;;;;;2096570;28;20020;-69
2021/08/03 00:14:54;;;;;;;7.10;5.88;;;14.60;99.90;;;;;;2096755;28;20371;-69
2021/08/03 00:16:02;;;;;;;7.35;5.35;;;14.60;99.90;;;;;;2094270;28;20032;-69
2021/08/03 00:17:03;;;;;;;8.70;5.32;;;14.60;99.90;;;;;;2090241;28;20021;-69
2021/08/03 00:18:04;;;;;;;5.38;4.43;;;14.60;99.90;;;;;;2096773;28;20020;-69
2021/08/03 00:19:05;;;;;;;6.13;5.10;;;14.60;99.90;;;;;;2095497;28;20044;-69
2021/08/03 00:20:06;;;;;;;6.05;4.50;;;14.50;99.90;;;;;;2094700;28;20633;-70
2021/08/03 00:21:09;;;;;;;7.03;4.95;;;14.60;99.90;;;;;;2088162;28;20025;-70
2021/08/03 00:22:10;;;;;;;7.82;5.30;;;14.50;99.90;;;;;;2090298;28;20074;-70
2021/08/03 00:23:11;;;;;;;9.00;5.13;;;14.50;99.90;;;;;;2091249;28;20024;-70
2021/08/03 00:24:12;;;;;;;8.10;5.05;;;14.50;99.90;;;;;;2103556;28;20048;-70
2021/08/03 00:25:12;;;;;;;10.18;5.55;;;14.50;99.90;;;;;;2104986;28;20020;-70
2021/08/03 00:26:15;;;;;;;6.45;5.20;;;14.50;99.90;;;;;;2104157;28;20169;-70
2021/08/03 00:27:15;;;;;;;6.10;4.97;;;14.50;99.90;;;;;;2104561;28;20020;-70
2021/08/03 00:28:16;;;;;;;6.85;5.32;;;14.50;99.90;;;;;;2104870;28;20061;-69
2021/08/03 00:29:17;;;;;;;6.78;4.57;;;14.50;99.90;;;;;;2105290;28;20035;-70
2021/08/03 00:30:17;;;;;;;5.07;4.47;;;14.50;99.90;;;;;;2104162;28;20384;-70
2021/08/03 00:31:24;;;;;;;7.47;5.32;;;14.50;99.90;;;;;;2101984;28;20126;-69
2021/08/03 00:32:28;;;;;;;8.10;5.32;;;14.50;99.90;;;;;;2096132;28;20023;-70
2021/08/03 00:33:29;;;;;;;8.32;4.53;;;14.50;99.90;;;;;;2096625;28;20271;-70
2021/08/03 00:34:30;;;;;;;8.85;5.13;;;14.50;99.90;;;;;;2096432;28;20025;-70
2021/08/03 00:35:30;;;;;;;5.53;4.63;;;14.50;99.90;;;;;;2096658;28;20387;-70
2021/08/03 00:36:31;;;;;;;9.30;5.80;;;14.50;99.90;;;;;;2097155;28;20047;-70
2021/08/03 00:37:32;;;;;;;6.97;5.72;;;14.50;99.90;;;;;;2105289;28;20024;-70
2021/08/03 00:38:32;;;;;;;7.32;5.35;;;14.50;99.90;;;;;;2100384;28;20524;-70
2021/08/03 00:39:34;;;;;;;8.00;6.65;;;14.50;99.90;;;;;;2096033;28;20411;-70
2021/08/03 00:40:43;;;;;;;8.80;5.65;;;14.50;99.90;;;;;;2100858;28;20024;-70
2021/08/03 00:42:02;;;;;;;7.13;5.30;;;14.50;99.90;;;;;;2100467;28;20475;-70
2021/08/03 00:43:02;;;;;;;5.63;5.13;;;14.50;99.90;;;;;;2104465;28;20089;-70
2021/08/03 00:44:03;;;;;;;6.13;5.53;;;14.50;99.90;;;;;;2104917;28;20024;-70
2021/08/03 00:45:06;;;;;;;7.18;4.80;;;14.40;99.90;;;;;;2104798;28;20035;-70
2021/08/03 00:46:07;;;;;;;6.45;5.32;;;14.50;99.90;;;;;;2104881;28;20019;-70
2021/08/03 00:47:08;;;;;;;6.72;5.85;;;14.50;99.90;;;;;;2104843;28;20024;-70
2021/08/03 00:48:09;;;;;;;7.40;6.63;;;14.40;99.90;;;;;;2105130;28;20024;-70
2021/08/03 00:49:10;;;;;;;9.02;7.05;;;14.50;99.90;;;;;;2098197;28;20032;-70
2021/08/03 00:50:11;;;;;;;9.43;6.78;;;14.50;99.90;;;;;;2091509;28;20067;-70
2021/08/03 00:51:12;;;;;;;6.68;6.07;;;14.40;99.90;;;;;;2089782;28;20040;-70
2021/08/03 00:52:14;;;;;;;6.03;5.25;;;14.40;99.90;;;;;;2096405;28;20013;-70
2021/08/03 00:53:15;;;;;;;9.20;6.25;;;14.40;99.90;;;;;;2101162;28;20031;-70
2021/08/03 00:54:15;;;;;;;7.13;5.43;;;14.40;99.90;;;;;;2094000;28;20495;-70
2021/08/03 00:55:16;;;;;;;7.53;6.10;;;14.40;99.90;;;;;;2088214;28;20078;-70
2021/08/03 00:56:17;;;;;;;7.78;6.05;;;14.40;99.90;;;;;;2093523;28;20028;-70
2021/08/03 00:57:18;;;;;;;6.15;5.45;;;14.40;99.90;;;;;;2096048;28;20028;-70
2021/08/03 00:58:18;;;;;;;9.25;6.47;;;14.50;99.90;;;;;;2103401;28;20043;-70
2021/08/03 00:59:19;;;;;;;6.43;5.72;;;14.40;99.90;;;;;;2104477;28;20161;-70
2021/08/03 01:00:20;;;;;;;8.93;5.60;;;14.40;99.90;;;;;;2105297;28;20040;-69
2021/08/03 01:01:20;;;;;;;6.60;5.90;;;14.40;99.90;;;;;;2103823;28;20036;-70
2021/08/03 01:02:22;;;;;;;8.77;6.32;;;14.40;99.90;;;;;;2104122;28;20020;-70
2021/08/03 01:03:24;;;;;;;7.35;6.60;;;14.50;99.90;;;;;;2103464;28;20059;-70
2021/08/03 01:04:24;;;;;;;7.10;6.20;;;14.50;99.90;;;;;;2104142;28;20106;-70
2021/08/03 01:05:43;;;;;;;6.57;5.95;;;14.50;99.90;;;;;;2100275;28;20033;-70
2021/08/03 01:07:08;;;;;;;8.90;6.57;;;14.50;99.90;;;;;;2090301;28;20533;-70
2021/08/03 01:08:27;;;;;;;8.98;6.32;;;14.40;99.90;;;;;;2100144;28;20028;-70
2021/08/03 01:09:33;;;;;;;12.27;5.75;;;14.40;99.90;;;;;;2094729;28;20131;-70
2021/08/03 01:11:00;;;;;;;9.35;7.05;;;14.40;99.90;;;;;;2097146;28;20035;-70
2021/08/03 01:12:41;;;;;;;10.55;6.70;;;14.40;99.90;;;;;;2104275;28;20019;-70
2021/08/03 01:13:41;;;;;;;11.90;6.00;;;14.40;99.90;;;;;;2094841;28;20111;-70
2021/08/03 01:14:55;;;;;;;6.90;5.60;;;14.40;99.90;;;;;;2094010;28;20029;-70
2021/08/03 01:15:58;;;;;;;6.88;5.03;;;14.40;99.90;;;;;;2101930;28;20050;-70
2021/08/03 01:17:22;;;;;;;8.10;5.72;;;14.40;99.90;;;;;;2104873;28;20028;-70
2021/08/03 01:18:49;;;;;;;6.60;5.95;;;14.40;99.90;;;;;;2104428;28;20016;-70
2021/08/03 01:20:04;;;;;;;6.65;5.72;;;14.40;99.90;;;;;;2104827;28;20020;-70
2021/08/03 01:21:46;;;;;;;10.10;6.63;;;14.30;99.90;;;;;;2104385;28;20038;-70
2021/08/03 01:23:02;;;;;;;8.75;5.82;;;14.30;99.90;;;;;;2104209;28;20046;-70
2021/08/03 01:24:29;;;;;;;7.50;6.50;;;14.30;99.90;;;;;;2104756;28;20028;-70
2021/08/03 01:25:41;;;;;;;8.05;7.05;;;14.30;99.90;;;;;;2098457;28;20033;-70
2021/08/03 01:27:06;;;;;;;9.63;7.30;;;14.30;99.90;;;;;;2096916;28;20484;-70
2021/08/03 01:28:38;;;;;;;7.40;5.60;;;14.30;99.90;;;;;;2104475;28;20035;-70
2021/08/03 01:29:43;;;;;;;6.20;5.60;;;14.20;99.90;;;;;;2079686;28;20475;-70
2021/08/03 01:30:49;;;;;;;6.97;6.28;;;14.20;99.90;;;;;;2094773;28;20427;-71
2021/08/03 01:31:53;;;;;;;8.10;6.32;;;14.30;99.90;;;;;;2096289;28;20503;-70
2021/08/03 01:32:54;;;;;;;6.72;5.90;;;14.30;99.90;;;;;;2096048;28;20477;-70
2021/08/03 01:34:08;;;;;;;7.60;6.20;;;14.30;99.90;;;;;;2096268;28;20035;-70
2021/08/03 01:35:10;;;;;;;11.63;6.57;;;14.30;99.90;;;;;;2099167;28;20476;-70
2021/08/03 01:36:12;;;;;;;10.65;7.60;;;14.30;99.90;;;;;;2104583;28;20024;-70
2021/08/03 01:37:19;;;;;;;9.20;8.27;;;14.30;99.90;;;;;;2104523;28;20016;-70
2021/08/03 01:38:21;;;;;;;9.43;8.52;;;14.30;99.90;;;;;;2102662;28;20798;-70
2021/08/03 01:39:28;;;;;;;11.05;9.07;;;14.30;99.90;;;;;;2093483;28;20506;-70
2021/08/03 01:40:29;;;;;;;9.20;7.97;;;14.30;99.90;;;;;;2091430;28;20036;-70
2021/08/03 01:41:31;;;;;;;11.48;8.25;;;14.30;99.90;;;;;;2096048;28;20035;-70
2021/08/03 01:42:37;;;;;;;14.80;8.73;;;14.30;99.90;;;;;;2088651;28;20027;-70
2021/08/03 01:43:40;;;;;;;11.13;8.98;;;14.30;99.90;;;;;;2095988;28;20021;-70
2021/08/03 01:44:42;;;;;;;11.30;8.55;;;14.30;99.90;;;;;;2093051;28;20032;-71
2021/08/03 01:45:45;;;;;;;14.60;9.63;;;14.30;99.90;;;;;;2099446;28;20032;-70
2021/08/03 01:46:47;;;;;;;13.38;8.50;;;14.20;99.90;;;;;;2099365;28;20024;-70
2021/08/03 01:47:48;;;;;;;10.85;8.30;;;14.20;99.90;;;;;;2096266;28;20032;-70
2021/08/03 01:48:53;;;;;;;8.18;7.07;;;14.20;99.90;;;;;;2095877;28;20032;-70
2021/08/03 01:49:55;;;;;;;11.50;8.52;;;14.20;99.90;;;;;;2093631;28;20024;-70
2021/08/03 01:50:56;;;;;;;9.65;8.45;;;14.20;99.90;;;;;;2089622;28;20032;-70
2021/08/03 01:51:57;;;;;;;11.40;8.10;;;14.30;99.90;;;;;;2096046;28;20044;-70
2021/08/03 01:52:58;;;;;;;8.07;7.20;;;14.30;99.90;;;;;;2095299;28;20024;-70
2021/08/03 01:54:00;;;;;;;12.05;8.48;;;14.30;99.90;;;;;;2096585;28;20032;-70
2021/08/03 01:55:01;;;;;;;8.40;6.45;;;14.30;99.90;;;;;;2095929;28;20161;-71
2021/08/03 01:56:02;;;;;;;9.98;7.55;;;14.30;99.90;;;;;;2095556;28;20024;-71
2021/08/03 01:57:04;;;;;;;11.60;8.52;;;14.30;99.90;;;;;;2095888;28;20056;-71
2021/08/03 01:58:05;;;;;;;10.23;8.95;;;14.30;99.90;;;;;;2096651;28;20077;-70
2021/08/03 01:59:07;;;;;;;10.57;8.50;;;14.30;99.90;;;;;;2089129;28;20066;-70
2021/08/03 02:00:08;;;;;;;11.20;9.13;;;14.30;99.90;;;;;;2097026;28;20044;-70
2021/08/03 02:01:10;;;;;;;9.60;8.60;;;14.20;99.90;;;;;;2101454;28;20103;-71
2021/08/03 02:02:13;;;;;;;12.32;8.15;;;14.20;99.90;;;;;;2105776;28;20029;-71
2021/08/03 02:03:15;;;;;;;13.43;8.23;;;14.20;99.90;;;;;;2105115;28;20419;-71
2021/08/03 02:04:17;;;;;;;9.70;7.93;;;14.20;99.90;;;;;;2105219;28;20081;-70
2021/08/03 02:05:18;;;;;;;8.63;7.53;;;14.20;99.90;;;;;;2104635;28;20032;-70
2021/08/03 02:06:24;;;;;;;8.73;7.07;;;14.20;99.90;;;;;;2101606;28;20029;-70
2021/08/03 02:07:26;;;;;;;10.93;7.95;;;14.20;99.90;;;;;;2099858;28;20039;-71
2021/08/03 02:08:27;;;;;;;9.48;7.78;;;14.20;99.90;;;;;;2105866;28;20020;-70
2021/08/03 02:09:29;;;;;;;11.27;7.57;;;14.30;99.90;;;;;;2105286;28;20472;-70
2021/08/03 02:10:29;;;;;;;10.93;8.80;;;14.20;99.90;;;;;;2105859;28;20518;-71
2021/08/03 02:11:33;;;;;;;8.95;8.05;;;14.30;99.90;;;;;;2105437;28;20430;-70
2021/08/03 02:12:36;;;;;;;8.38;6.65;;;14.30;99.90;;;;;;2100384;28;20028;-70
2021/08/03 02:13:36;;;;;;;11.40;7.82;;;14.30;99.90;;;;;;2097301;28;20028;-70
2021/08/03 02:14:44;;;;;;;7.97;6.97;;;14.30;99.90;;;;;;2092575;28;20029;-70
2021/08/03 02:15:46;;;;;;;10.50;6.88;;;14.30;99.90;;;;;;2096750;28;20024;-70
2021/08/03 02:16:47;;;;;;;8.40;6.65;;;14.30;99.90;;;;;;2093252;28;20075;-70
2021/08/03 02:17:48;;;;;;;8.73;7.13;;;14.30;99.90;;;;;;2096887;28;20353;-70
2021/08/03 02:18:49;;;;;;;8.07;7.25;;;14.30;99.90;;;;;;2097494;28;20051;-71
2021/08/03 02:19:50;;;;;;;8.15;6.63;;;14.30;99.90;;;;;;2097304;28;20028;-70
2021/08/03 02:20:53;;;;;;;8.93;6.57;;;14.30;99.90;;;;;;2097401;28;20029;-70
2021/08/03 02:21:54;;;;;;;9.48;7.00;;;14.30;99.90;;;;;;2097100;28;20028;-70
2021/08/03 02:22:54;;;;;;;7.97;6.63;;;14.30;99.90;;;;;;2097208;28;20029;-70
2021/08/03 02:23:55;;;;;;;8.10;6.30;;;14.30;99.90;;;;;;2097286;28;20102;-70
2021/08/03 02:24:56;;;;;;;7.68;6.97;;;14.30;99.90;;;;;;2092095;28;20056;-70
2021/08/03 02:25:56;;;;;;;7.63;6.45;;;14.30;99.90;;;;;;2089837;28;20472;-70
2021/08/03 02:26:57;;;;;;;9.50;8.05;;;14.30;99.90;;;;;;2097960;28;20134;-70
2021/08/03 02:27:57;;;;;;;7.75;6.80;;;14.30;99.90;;;;;;2098486;28;20056;-70
2021/08/03 02:28:58;;;;;;;8.65;7.07;;;14.30;99.90;;;;;;2094062;28;20065;-70
2021/08/03 02:29:59;;;;;;;8.20;6.47;;;14.30;99.90;;;;;;2092083;28;20368;-71
2021/08/03 02:31:14;;;;;;;10.18;6.72;;;14.30;99.90;;;;;;2099400;28;20476;-71
2021/08/03 02:32:17;;;;;;;8.27;6.13;;;14.30;99.90;;;;;;2098622;28;20096;-71
2021/08/03 02:33:20;;;;;;;7.78;7.07;;;14.30;99.90;;;;;;2098397;28;20078;-71
2021/08/03 02:34:47;;;;;;;8.60;7.70;;;14.30;99.90;;;;;;2098717;28;20020;-71
2021/08/03 02:35:55;;;;;;;8.80;7.28;;;14.30;99.90;;;;;;2090473;28;20386;-70
2021/08/03 02:37:02;;;;;;;7.88;6.43;;;14.20;99.90;;;;;;2095187;28;20028;-71
2021/08/03 02:38:06;;;;;;;9.25;7.72;;;14.20;99.90;;;;;;2099023;28;20078;-71
2021/08/03 02:39:07;;;;;;;10.50;7.60;;;14.20;99.90;;;;;;2098544;28;20029;-71
2021/08/03 02:40:09;;;;;;;10.98;8.75;;;14.20;99.90;;;;;;2099397;28;20028;-71
2021/08/03 02:41:09;;;;;;;10.07;8.60;;;14.20;99.90;;;;;;2099120;28;20598;-71
2021/08/03 02:42:11;;;;;;;10.27;9.23;;;14.20;99.90;;;;;;2106477;28;20430;-71
2021/08/03 02:43:15;;;;;;;11.52;8.48;;;14.20;99.90;;;;;;2097323;28;20047;-71
2021/08/03 02:44:18;;;;;;;10.45;9.05;;;14.20;99.90;;;;;;2098761;28;20021;-71
2021/08/03 02:45:20;;;;;;;10.50;8.48;;;14.20;99.90;;;;;;2098459;28;20387;-71
2021/08/03 02:46:23;;;;;;;11.65;8.40;;;14.20;99.90;;;;;;2098754;28;20021;-71
2021/08/03 02:47:26;;;;;;;8.43;7.43;;;14.20;99.90;;;;;;2098673;28;20029;-70
2021/08/03 02:48:29;;;;;;;10.65;7.60;;;14.20;99.90;;;;;;2098540;28;20559;-70
2021/08/03 02:49:47;;;;;;;12.30;7.82;;;14.20;99.90;;;;;;2098679;28;20035;-70
2021/08/03 02:50:49;;;;;;;10.30;7.88;;;14.20;99.90;;;;;;2098363;28;20111;-70
2021/08/03 02:51:50;;;;;;;8.50;7.50;;;14.20;99.90;;;;;;2097685;28;20031;-70
2021/08/03 02:52:56;;;;;;;11.13;8.27;;;14.20;99.90;;;;;;2097514;28;20103;-70
2021/08/03 02:54:00;;;;;;;12.13;9.27;;;14.20;99.90;;;;;;2097913;28;20056;-70
2021/08/03 02:55:12;;;;;;;12.32;9.55;;;14.20;99.90;;;;;;2104038;28;20024;-70
2021/08/03 02:56:17;;;;;;;15.10;9.32;;;14.20;99.90;;;;;;2100803;28;20063;-70
2021/08/03 02:57:20;;;;;;;12.23;9.50;;;14.20;99.90;;;;;;2098361;28;20078;-70
2021/08/03 02:58:27;;;;;;;15.85;10.38;;;14.20;99.90;;;;;;2105890;28;20496;-70
2021/08/03 02:59:31;;;;;;;11.52;9.65;;;14.20;99.90;;;;;;2106185;28;20033;-70
2021/08/03 03:00:35;;;;;;;10.10;8.55;;;14.20;99.90;;;;;;2093517;28;20088;-71
2021/08/03 03:01:38;;;;;;;11.02;9.25;;;14.10;99.90;;;;;;2093250;28;20021;-70
2021/08/03 03:02:43;;;;;;;10.93;9.18;;;14.20;99.90;;;;;;2091935;28;20070;-71
2021/08/03 03:03:52;;;;;;;10.43;9.27;;;14.20;99.90;;;;;;2097541;28;20035;-70
2021/08/03 03:05:02;;;;;;;12.18;9.05;;;14.20;99.90;;;;;;2097006;28;20029;-70
2021/08/03 03:06:06;;;;;;;8.45;7.63;;;14.10;99.90;;;;;;2097139;28;20035;-71
2021/08/03 03:07:13;;;;;;;13.05;8.48;;;14.10;99.90;;;;;;2097494;28;20031;-70
2021/08/03 03:08:17;;;;;;;10.98;8.32;;;14.20;99.90;;;;;;2097708;28;20055;-70
2021/08/03 03:09:21;;;;;;;11.02;8.63;;;14.20;99.90;;;;;;2097068;28;20059;-70
2021/08/03 03:10:26;;;;;;;10.93;9.80;;;14.20;99.90;;;;;;2097033;28;20044;-70
2021/08/03 03:11:30;;;;;;;11.38;8.93;;;14.20;99.90;;;;;;2101343;28;20490;-71
2021/08/03 03:12:34;;;;;;;11.52;9.38;;;14.20;99.90;;;;;;2097129;28;20039;-70
2021/08/03 03:13:48;;;;;;;12.82;10.10;;;14.20;99.90;;;;;;2097501;28;20155;-70
2021/08/03 03:14:50;;;;;;;12.45;10.10;;;14.20;99.90;;;;;;2104815;28;20139;-71
2021/08/03 03:15:52;;;;;;;14.70;10.30;;;14.20;99.90;;;;;;2104973;28;20464;-71
2021/08/03 03:16:56;;;;;;;17.42;10.15;;;14.20;99.90;;;;;;2105298;28;20486;-72
2021/08/03 03:17:57;;;;;;;11.68;9.52;;;14.20;99.90;;;;;;2105657;28;20095;-72
2021/08/03 03:18:58;;;;;;;13.95;10.60;;;14.20;99.90;;;;;;2105320;28;20035;-72
2021/08/03 03:20:01;;;;;;;11.38;9.35;;;14.20;99.90;;;;;;2105995;28;20032;-72
2021/08/03 03:21:03;;;;;;;12.13;9.50;;;14.20;99.90;;;;;;2105693;28;20068;-72
2021/08/03 03:22:06;;;;;;;12.75;9.40;;;14.20;99.90;;;;;;2100346;28;20016;-72
2021/08/03 03:23:07;;;;;;;12.18;9.27;;;14.20;99.90;;;;;;2105011;28;20016;-72
2021/08/03 03:24:08;;;;;;;13.00;8.98;;;14.20;99.90;;;;;;2105535;28;20028;-72
2021/08/03 03:25:12;;;;;;;11.95;9.07;;;14.20;99.90;;;;;;2101925;28;20116;-72
2021/08/03 03:26:13;;;;;;;10.82;8.77;;;14.30;99.90;;;;;;2105869;28;20020;-72
2021/08/03 03:27:17;;;;;;;10.02;9.02;;;14.30;99.90;;;;;;2105179;28;20066;-72
2021/08/03 03:28:23;;;;;;;9.95;7.78;;;14.30;99.90;;;;;;2105863;28;20028;-72
2021/08/03 03:29:26;;;;;;;12.23;8.80;;;14.30;99.90;;;;;;2105352;28;20032;-72
2021/08/03 03:30:28;;;;;;;10.82;9.25;;;14.30;99.90;;;;;;2105453;28;20023;-72
2021/08/03 03:31:30;;;;;;;9.48;8.50;;;14.30;99.90;;;;;;2100495;28;20487;-72
2021/08/03 03:32:32;;;;;;;9.32;8.35;;;14.40;99.90;;;;;;2105589;28;20052;-72
2021/08/03 03:33:36;;;;;;;13.23;8.80;;;14.40;99.90;;;;;;2105220;28;20027;-72
2021/08/03 03:34:39;;;;;;;9.30;7.88;;;14.40;99.90;;;;;;2100818;28;20487;-72
2021/08/03 03:35:41;;;;;;;12.13;8.35;;;14.40;99.90;;;;;;2096717;28;20035;-72
2021/08/03 03:36:44;;;;;;;10.48;9.35;;;14.40;99.90;;;;;;2097454;28;20095;-71
2021/08/03 03:37:46;;;;;;;9.77;8.40;;;14.30;99.90;;;;;;2097155;28;20021;-72
2021/08/03 03:38:48;;;;;;;10.82;8.35;;;14.40;99.90;;;;;;2096368;28;20539;-72
2021/08/03 03:39:49;;;;;;;10.40;8.52;;;14.40;99.90;;;;;;2094767;28;20074;-72
2021/08/03 03:40:50;;;;;;;10.80;8.35;;;14.40;99.90;;;;;;2091808;28;20013;-72
2021/08/03 03:41:54;;;;;;;9.25;8.25;;;14.40;99.90;;;;;;2089636;28;20377;-72
2021/08/03 03:42:58;;;;;;;9.90;8.25;;;14.40;99.90;;;;;;2094374;28;20013;-72
2021/08/03 03:43:59;;;;;;;9.20;8.23;;;14.40;99.90;;;;;;2090461;28;20417;-72
2021/08/03 03:45:00;;;;;;;9.98;7.63;;;14.40;99.90;;;;;;2100940;28;20035;-72
2021/08/03 03:46:08;;;;;;;9.48;7.60;;;14.40;99.90;;;;;;2097965;28;20083;-72
2021/08/03 03:47:18;;;;;;;13.25;8.32;;;14.50;99.90;;;;;;2096990;28;20162;-72
2021/08/03 03:48:21;;;;;;;14.13;8.07;;;14.50;99.90;;;;;;2093698;28;20021;-72
2021/08/03 03:49:30;;;;;;;9.25;8.15;;;14.50;99.90;;;;;;2089379;28;20035;-72
2021/08/03 03:50:35;;;;;;;10.38;8.55;;;14.50;99.90;;;;;;2088822;28;20021;-71
2021/08/03 03:51:40;;;;;;;13.73;9.40;;;14.50;99.90;;;;;;2094782;28;20035;-72
2021/08/03 03:52:46;;;;;;;10.65;8.70;;;14.50;99.90;;;;;;2093289;28;20044;-71
2021/08/03 03:53:52;;;;;;;10.73;8.95;;;14.50;99.90;;;;;;2096622;28;20530;-72
2021/08/03 03:54:54;;;;;;;10.38;8.68;;;14.50;99.90;;;;;;2096851;28;20112;-72
2021/08/03 03:55:59;;;;;;;11.13;8.48;;;14.50;99.90;;;;;;2095299;28;20524;-72
2021/08/03 03:57:04;;;;;;;9.80;8.15;;;14.50;99.90;;;;;;2089047;28;20033;-72
2021/08/03 03:58:06;;;;;;;10.25;9.05;;;14.50;99.90;;;;;;2101476;28;20020;-72
2021/08/03 03:59:09;;;;;;;9.90;9.00;;;14.50;99.90;;;;;;2105402;28;20016;-72
2021/08/03 04:00:14;;;;;;;9.45;8.32;;;14.50;99.90;;;;;;2104351;28;20035;-72
2021/08/03 04:01:22;;;;;;;9.90;8.15;;;14.50;99.90;;;;;;2104831;28;20024;-72
2021/08/03 04:02:23;;;;;;;10.52;8.77;;;14.50;99.90;;;;;;2105259;28;20038;-72
2021/08/03 04:03:25;;;;;;;9.55;8.25;;;14.50;99.90;;;;;;2094180;28;20060;-72
2021/08/03 04:04:28;;;;;;;8.63;7.75;;;14.50;99.90;;;;;;2093932;28;20037;-72
2021/08/03 04:05:29;;;;;;;10.27;7.78;;;14.60;99.90;;;;;;2096772;28;20103;-72
2021/08/03 04:06:32;;;;;;;11.18;8.18;;;14.60;99.90;;;;;;2097034;28;20372;-72
2021/08/03 04:07:34;;;;;;;9.23;8.13;;;14.60;99.90;;;;;;2100155;28;20107;-71
2021/08/03 04:08:38;;;;;;;10.00;8.43;;;14.60;99.90;;;;;;2105225;28;20020;-72
2021/08/03 04:09:41;;;;;;;10.80;8.77;;;14.60;99.90;;;;;;2105159;28;20080;-70
2021/08/03 04:10:42;;;;;;;11.20;8.70;;;14.60;99.90;;;;;;2104935;28;20051;-71
2021/08/03 04:11:47;;;;;;;9.70;8.75;;;14.60;99.90;;;;;;2105275;28;20850;-71
2021/08/03 04:12:47;;;;;;;10.18;8.13;;;14.60;99.90;;;;;;2097299;28;20027;-71
2021/08/03 04:13:50;;;;;;;13.15;8.85;;;14.60;99.90;;;;;;2090625;28;20025;-72
2021/08/03 04:14:50;;;;;;;9.73;7.95;;;14.70;99.90;;;;;;2095670;28;20089;-72
2021/08/03 04:15:51;;;;;;;12.63;8.80;;;14.70;99.90;;;;;;2100103;28;20016;-71
2021/08/03 04:16:54;;;;;;;13.63;8.98;;;14.70;99.90;;;;;;2093899;28;20727;-72
2021/08/03 04:17:55;;;;;;;10.95;8.50;;;14.70;99.90;;;;;;2090806;28;20025;-72
2021/08/03 04:18:55;;;;;;;11.20;8.13;;;14.70;99.90;;;;;;2096087;28;20058;-72
2021/08/03 04:19:56;;;;;;;17.30;8.25;;;14.70;99.90;;;;;;2098990;28;20027;-71
2021/08/03 04:20:56;;;;;;;9.15;8.27;;;14.70;99.90;;;;;;2096755;28;20028;-71
2021/08/03 04:21:57;;;;;;;9.43;8.48;;;14.70;99.90;;;;;;2092503;28;20025;-71
2021/08/03 04:22:57;;;;;;;13.73;9.23;;;14.70;99.90;;;;;;2097406;28;20372;-71
2021/08/03 04:23:58;;;;;;;10.40;8.60;;;14.70;99.90;;;;;;2096885;28;20113;-71
2021/08/03 04:24:59;;;;;;;10.48;7.78;;;14.70;99.90;;;;;;2090143;28;20028;-71
2021/08/03 04:26:00;;;;;;;10.00;8.02;;;14.80;99.90;;;;;;2098475;28;20097;-71
2021/08/03 04:27:02;;;;;;;10.82;8.38;;;14.70;99.90;;;;;;2096473;28;20055;-72
2021/08/03 04:28:03;;;;;;;10.52;7.90;;;14.70;99.90;;;;;;2094693;28;20539;-71
2021/08/03 04:29:04;;;;;;;9.18;8.18;;;14.80;99.90;;;;;;2088609;28;20075;-72
2021/08/03 04:30:08;;;;;;;9.30;8.38;;;14.80;99.90;;;;;;2097999;28;20419;-71
2021/08/03 04:31:08;;;;;;;11.77;7.78;;;14.80;99.90;;;;;;2097113;28;20069;-71
2021/08/03 04:32:09;;;;;;;10.32;8.20;;;14.80;99.90;;;;;;2095015;28;20024;-71
2021/08/03 04:33:09;;;;;;;11.30;7.90;;;14.90;99.90;;;;;;2095792;28;20032;-72
2021/08/03 04:34:10;;;;;;;10.13;7.97;;;14.90;99.90;;;;;;2095804;28;20104;-71
2021/08/03 04:35:11;;;;;;;8.05;7.22;;;14.90;99.90;;;;;;2100384;28;20122;-71
2021/08/03 04:36:12;;;;;;;9.43;7.57;;;14.90;99.90;;;;;;2096041;28;20025;-72
2021/08/03 04:37:13;;;;;;;8.75;7.88;;;14.90;99.90;;;;;;2104592;28;20936;-71
2021/08/03 04:38:13;;;;;;;9.13;8.05;;;14.90;99.90;;;;;;2104857;28;20020;-72
2021/08/03 04:39:14;;;;;;;8.82;8.02;;;15.00;99.90;;;;;;2096289;28;20029;-72
2021/08/03 04:40:17;;;;;;;11.90;8.40;;;15.00;99.90;;;;;;2101576;28;20487;-72
2021/08/03 04:41:17;;;;;;;12.52;8.73;;;15.00;99.90;;;;;;2089796;28;20017;-72
2021/08/03 04:42:19;;;;;;;13.48;7.90;;;15.00;99.90;;;;;;2090902;28;20053;-72
2021/08/03 04:43:19;;;;;;;9.63;8.63;;;15.00;99.90;;;;;;2091105;28;20147;-73
2021/08/03 04:44:20;;;;;;;9.82;8.80;;;15.00;99.90;;;;;;2087749;28;20518;-70
2021/08/03 04:45:20;;;;;;;10.80;8.70;;;15.00;99.90;;;;;;2088721;28;20052;-70
2021/08/03 04:46:21;;;;;;;9.20;8.27;;;15.00;99.90;;;;;;2088751;28;20097;-70
2021/08/03 04:47:21;;;;;;;11.63;7.95;;;15.10;99.90;;;;;;2090103;28;20025;-70
2021/08/03 04:48:22;;;;;;;12.30;8.13;;;15.10;99.90;;;;;;2090195;28;20720;-70
2021/08/03 04:49:23;;;;;;;10.45;7.60;;;15.10;99.90;;;;;;2087828;28;20025;-70
2021/08/03 04:50:26;;;;;;;8.05;7.28;;;15.10;99.90;;;;;;2088234;28;20029;-70
2021/08/03 04:51:27;;;;;;;9.70;8.25;;;15.10;99.90;;;;;;2088655;28;20117;-70
2021/08/03 04:52:28;;;;;;;8.88;7.57;;;15.20;99.90;;;;;;2087649;28;20021;-71
2021/08/03 04:53:28;;;;;;;8.35;7.43;;;15.20;99.90;;;;;;2089375;28;20029;-70
2021/08/03 04:54:29;;;;;;;9.40;7.88;;;15.20;99.90;;;;;;2090743;28;20023;-70
2021/08/03 04:55:29;;;;;;;8.45;7.28;;;15.20;99.90;;;;;;2087980;28;20431;-70
2021/08/03 04:56:30;;;;;;;16.98;8.70;;;15.20;99.90;;;;;;2095955;28;20380;-70
2021/08/03 04:57:31;;;;;;;11.68;7.88;;;15.20;99.90;;;;;;2103902;28;20032;-71
2021/08/03 04:58:31;;;;;;;10.55;8.32;;;15.20;99.90;;;;;;2095466;28;20024;-71
2021/08/03 04:59:32;;;;;;;10.18;8.05;;;15.20;99.90;;;;;;2094951;28;20020;-71
2021/08/03 05:00:33;;;;;;;8.52;7.65;;;15.20;99.90;;;;;;2094234;28;20115;-71
2021/08/03 05:01:33;;;;;;;9.65;7.70;;;15.20;99.90;;;;;;2095972;28;20480;-71
2021/08/03 05:02:35;;;;;;;8.98;8.07;;;15.20;99.90;;;;;;2094314;28;20036;-71
2021/08/03 05:03:36;;;;;;;7.75;7.05;;;15.20;99.90;;;;;;2092092;28;20052;-71
2021/08/03 05:04:36;;;;;;;9.98;7.97;;;15.20;99.90;;;;;;2095120;28;20078;-71
2021/08/03 05:05:37;;;;;;;11.52;8.30;;;15.20;99.90;;;;;;2096361;28;20028;-71
2021/08/03 05:06:38;;;;;;;11.15;8.02;;;15.20;99.90;;;;;;2096124;28;20024;-71
2021/08/03 05:07:38;;;;;;;10.98;8.02;;;15.20;99.90;;;;;;2096125;28;20060;-71
2021/08/03 05:08:39;;;;;;;8.82;7.70;;;15.20;99.90;;;;;;2094590;28;20214;-71
2021/08/03 05:09:39;;;;;;;8.05;7.25;;;15.20;99.90;;;;;;2095258;28;20163;-71
2021/08/03 05:10:40;;;;;;;11.13;7.80;;;15.20;99.90;;;;;;2095292;28;20484;-71
2021/08/03 05:11:40;;;;;;;8.65;7.75;;;15.20;99.90;;;;;;2096150;28;20497;-71
2021/08/03 05:12:41;;;;;;;19.95;8.55;;;15.20;99.90;;;;;;2094922;28;20081;-71
2021/08/03 05:13:41;;;;;;;8.80;7.85;;;15.20;99.90;;;;;;2095340;28;20642;-71
2021/08/03 05:14:42;;;;;;;9.07;7.97;;;15.20;99.90;;;;;;2095954;28;20067;-71
2021/08/03 05:15:43;;;;;;;8.93;7.97;;;15.20;99.90;;;;;;2095894;28;20097;-71
2021/08/03 05:16:43;;;;;;;8.15;7.38;;;15.20;99.90;;;;;;2096217;28;20021;-71
2021/08/03 05:17:44;;;;;;;11.40;7.50;;;15.20;99.90;;;;;;2096057;28;20020;-71
2021/08/03 05:18:44;;;;;;;10.07;8.18;;;15.20;99.90;;;;;;2095616;28;20021;-71
2021/08/03 05:19:45;;;;;;;8.13;7.00;;;15.20;99.90;;;;;;2095999;28;20424;-71
2021/08/03 05:20:45;;;;;;;8.48;7.13;;;15.20;99.90;;;;;;2095403;28;20032;-71
2021/08/03 05:21:46;;;;;;;8.27;7.18;;;15.20;99.90;;;;;;2094879;28;20115;-71
2021/08/03 05:22:47;;;;;;;7.70;6.97;;;15.30;99.90;;;;;;2094573;28;20031;-71
2021/08/03 05:23:47;;;;;;;9.20;8.30;;;15.30;99.90;;;;;;2095882;28;20418;-71
2021/08/03 05:24:48;;;;;;;8.95;8.05;;;15.30;99.90;;;;;;2096287;28;20113;-71
2021/08/03 05:25:49;;;;;;;8.95;8.05;;;15.40;99.90;;;;;;2096003;28;20025;-71
2021/08/03 05:26:49;;;;;;;8.07;6.85;;;15.30;99.90;;;;;;2095271;28;20098;-71
2021/08/03 05:27:50;;;;;;;7.53;6.90;;;15.40;99.90;;;;;;2084819;28;20075;-71
2021/08/03 05:28:50;;;;;;;9.88;7.13;;;15.40;99.90;;;;;;2095373;28;20056;-71
2021/08/03 05:29:51;;;;;;;10.60;7.15;;;15.40;99.90;;;;;;2094665;28;20353;-71